• Join FlightAware (Why Join?)
  • Login
  • US Flag 
07:05AM EDT


 

Airport Tracker/Info


-or-


 

Live Flight TrackerFlight Track Log ✈ RPA4907 ✈ 12-Jul-2013 ✈ KBWI - KEWR

Flight Track Log - Related Links

Times and Time Zones

All times are in EDT time to prevent confusion due to time zone crossing. See the RPA4907 flight status page for this flight to view local times or setup timezone preferences in your user account.

Time Position Orientation Groundspeed Altitude Reporting Facility
EDT Latitude Longitude Course Direction KTS MPH feet Rate Location/Type
03:40PM 39.1833 -76.6333 42° Northeast 181 208 2,700  Level Potomac TRACON
03:41PM 39.2333 -76.6167 14° North 162 186 5,100 2,400 Climbing Potomac TRACON
03:42PM 39.2167 -76.5667 113° Southeast 174 200 7,300 1,860 Climbing Potomac TRACON
03:43PM 39.1780 -76.1794 46° Northeast  Level FlightAware Approximate
03:43PM 39.2000 -76.5000 108° East 189 217 9,100  Level Potomac TRACON
03:44PM 39.2525 -76.0966 46° Northeast  Level FlightAware Approximate
03:44PM 39.2167 -76.4167 76° East 200 230 11,000  Level Potomac TRACON
03:45PM 39.3225 -76.0071 42° Northeast  Level FlightAware Approximate
03:45PM 39.2333 -76.3500 72° East 238 274 11,100  Level Potomac TRACON
03:46PM 39.3956 -75.9218 42° Northeast  Level FlightAware Approximate
03:46PM 39.2667 -76.2667 63° Northeast 232 267 11,100  Level Potomac TRACON
03:47PM 39.3000 -76.2000 57° Northeast 228 262 11,100 -60 Level Potomac TRACON
03:49PM 39.3833 -76.0500 54° Northeast 240 276 11,000  Descending Philadelphia TRACON
03:50PM 39.4167 -75.9833 57° Northeast 239 275 11,100  Climbing Philadelphia TRACON
03:51PM 39.4500 -75.9167 57° Northeast 240 276 11,000  Descending Philadelphia TRACON
03:53PM 39.5000 -75.8167 57° Northeast 237 273 11,100  Climbing Philadelphia TRACON
03:53PM 39.5333 -75.7833 38° Northeast 245 282 11,000  Descending Philadelphia TRACON
03:54PM 39.5833 -75.7167 46° Northeast 242 278 11,100  Climbing Philadelphia TRACON
03:55PM 39.6333 -75.6667 38° Northeast 242 278 11,100  Level Philadelphia TRACON
03:56PM 39.6833 -75.6000 46° Northeast 244 281 11,100  Level Philadelphia TRACON
03:57PM 39.7000 -75.5167 75° East 236 272 11,100 -480 Level Philadelphia TRACON
03:58PM 39.7333 -75.4333 62° Northeast 244 281 10,300 -1,020 Descending Philadelphia TRACON
03:59PM 39.7500 -75.3667 72° East 226 260 9,100 -600 Descending Philadelphia TRACON
04:00PM 39.7833 -75.2667 67° East 218 251 9,100  Level Philadelphia TRACON
04:01PM 39.7833 -75.2167 90° East 210 242 9,100  Level Philadelphia TRACON
04:02PM 39.8167 -75.1500 57° Northeast 219 252 9,100  Level Philadelphia TRACON
04:03PM 39.8333 -75.0500 78° East 223 257 9,100  Level Philadelphia TRACON
04:04PM 39.8500 -74.9833 72° East 231 266 9,100 -180 Level Philadelphia TRACON
04:05PM 39.9000 -74.9167 46° Northeast 241 277 8,800 -960 Descending Philadelphia TRACON
04:06PM 39.9500 -74.8500 46° Northeast 235 270 7,200 -900 Descending Philadelphia TRACON
04:07PM 40.0000 -74.8000 37° Northeast 213 245 7,100 -60 Descending New York TRACON
04:08PM 40.0333 -74.7500 49° Northeast 211 243 7,100  Level New York TRACON
04:09PM 40.0667 -74.6833 57° Northeast 214 246 7,100 -60 Level New York TRACON
04:10PM 40.1167 -74.6333 37° Northeast 218 251 7,000 -60 Descending New York TRACON
04:11PM 40.1500 -74.5667 57° Northeast 220 253 7,000  Level New York TRACON
04:12PM 40.2000 -74.5167 37° Northeast 221 254 7,000  Level New York TRACON
04:13PM 40.2500 -74.4833 27° Northeast 243 280 7,000 -540 Level New York TRACON
04:14PM 40.3167 -74.4833 360° North 236 272 6,000 -1,380 Descending New York TRACON
04:15PM 40.3500 -74.4333 49° Northeast 209 241 4,300 -1,020 Descending New York TRACON
04:16PM 40.3833 -74.3667 57° Northeast 180 207 4,000 -420 Descending New York TRACON
04:17PM 40.4167 -74.3333 37° Northeast 191 220 3,600 -480 Descending New York TRACON
04:18PM 40.4667 -74.3167 14° North 184 212 3,100 -300 Descending New York TRACON
04:19PM 40.5167 -74.2833 27° Northeast 154 177 3,000 -120 Descending New York TRACON
04:20PM 40.5500 -74.2500 37° Northeast 158 182 2,900 -120 Descending New York TRACON